sensor_id;sensor_type;location;lat;lon;timestamp;temperature;humidity
29917;DHT22;16786;49.466;11.068;2023-09-19T00:00:39;17.20;99.90
29917;DHT22;16786;49.466;11.068;2023-09-19T00:03:09;17.10;99.90
29917;DHT22;16786;49.466;11.068;2023-09-19T00:05:39;17.10;99.90
29917;DHT22;16786;49.466;11.068;2023-09-19T00:08:06;17.10;99.90
29917;DHT22;16786;49.466;11.068;2023-09-19T00:10:34;17.10;99.90
29917;DHT22;16786;49.466;11.068;2023-09-19T00:13:07;17.00;99.90
29917;DHT22;16786;49.466;11.068;2023-09-19T00:15:43;17.00;99.90
29917;DHT22;16786;49.466;11.068;2023-09-19T00:18:18;17.00;99.90
29917;DHT22;16786;49.466;11.068;2023-09-19T00:20:48;16.90;99.90
29917;DHT22;16786;49.466;11.068;2023-09-19T00:23:17;16.90;99.90
29917;DHT22;16786;49.466;11.068;2023-09-19T00:25:47;16.90;99.90
29917;DHT22;16786;49.466;11.068;2023-09-19T00:28:14;16.90;99.90
29917;DHT22;16786;49.466;11.068;2023-09-19T00:30:45;16.90;99.90
29917;DHT22;16786;49.466;11.068;2023-09-19T00:33:18;16.80;99.90
29917;DHT22;16786;49.466;11.068;2023-09-19T00:35:50;16.80;99.90
29917;DHT22;16786;49.466;11.068;2023-09-19T00:38:19;16.90;99.90
29917;DHT22;16786;49.466;11.068;2023-09-19T00:40:54;16.80;99.90
29917;DHT22;16786;49.466;11.068;2023-09-19T00:43:27;16.80;99.90
29917;DHT22;16786;49.466;11.068;2023-09-19T00:45:56;16.80;99.90
29917;DHT22;16786;49.466;11.068;2023-09-19T00:48:24;16.70;99.90
29917;DHT22;16786;49.466;11.068;2023-09-19T00:50:59;16.70;99.90
29917;DHT22;16786;49.466;11.068;2023-09-19T00:53:30;16.70;99.90
29917;DHT22;16786;49.466;11.068;2023-09-19T00:55:58;16.70;99.90
29917;DHT22;16786;49.466;11.068;2023-09-19T00:58:26;16.70;99.90
29917;DHT22;16786;49.466;11.068;2023-09-19T01:01:01;16.70;99.90
29917;DHT22;16786;49.466;11.068;2023-09-19T01:03:30;16.70;99.90
29917;DHT22;16786;49.466;11.068;2023-09-19T01:05:59;16.70;99.90
29917;DHT22;16786;49.466;11.068;2023-09-19T01:08:27;16.60;99.90
29917;DHT22;16786;49.466;11.068;2023-09-19T01:13:55;16.60;99.90
29917;DHT22;16786;49.466;11.068;2023-09-19T01:16:44;16.60;99.90
29917;DHT22;16786;49.466;11.068;2023-09-19T01:22:25;16.60;99.90
29917;DHT22;16786;49.466;11.068;2023-09-19T01:30:27;16.60;99.90
29917;DHT22;16786;49.466;11.068;2023-09-19T01:33:02;16.50;99.90
29917;DHT22;16786;49.466;11.068;2023-09-19T01:35:33;16.60;99.90
29917;DHT22;16786;49.466;11.068;2023-09-19T01:38:06;16.60;99.90
29917;DHT22;16786;49.466;11.068;2023-09-19T01:40:41;16.60;99.90
29917;DHT22;16786;49.466;11.068;2023-09-19T01:43:31;16.70;99.90
29917;DHT22;16786;49.466;11.068;2023-09-19T01:46:10;16.80;99.90
29917;DHT22;16786;49.466;11.068;2023-09-19T01:51:37;16.90;99.90
29917;DHT22;16786;49.466;11.068;2023-09-19T01:54:12;16.90;99.90
29917;DHT22;16786;49.466;11.068;2023-09-19T01:56:57;17.00;99.90
29917;DHT22;16786;49.466;11.068;2023-09-19T01:59:37;17.00;99.90
29917;DHT22;16786;49.466;11.068;2023-09-19T02:02:09;17.10;99.90
29917;DHT22;16786;49.466;11.068;2023-09-19T02:04:36;17.10;99.90
29917;DHT22;16786;49.466;11.068;2023-09-19T02:07:04;17.10;99.90
29917;DHT22;16786;49.466;11.068;2023-09-19T02:09:32;17.00;99.90
29917;DHT22;16786;49.466;11.068;2023-09-19T02:12:02;17.00;99.90
29917;DHT22;16786;49.466;11.068;2023-09-19T02:14:31;17.10;99.90
29917;DHT22;16786;49.466;11.068;2023-09-19T02:16:59;17.10;99.90
29917;DHT22;16786;49.466;11.068;2023-09-19T02:19:26;17.10;99.90
29917;DHT22;16786;49.466;11.068;2023-09-19T02:21:54;17.10;99.90
29917;DHT22;16786;49.466;11.068;2023-09-19T02:24:22;17.10;99.90
29917;DHT22;16786;49.466;11.068;2023-09-19T02:26:53;17.10;99.90
29917;DHT22;16786;49.466;11.068;2023-09-19T02:29:21;17.10;99.90
29917;DHT22;16786;49.466;11.068;2023-09-19T02:31:49;17.10;99.90
29917;DHT22;16786;49.466;11.068;2023-09-19T02:34:17;17.20;99.90
29917;DHT22;16786;49.466;11.068;2023-09-19T02:36:44;17.20;99.90
29917;DHT22;16786;49.466;11.068;2023-09-19T02:39:11;17.10;99.90
29917;DHT22;16786;49.466;11.068;2023-09-19T02:41:39;17.10;99.90
29917;DHT22;16786;49.466;11.068;2023-09-19T02:44:10;17.10;99.90
29917;DHT22;16786;49.466;11.068;2023-09-19T02:46:37;17.10;99.90
29917;DHT22;16786;49.466;11.068;2023-09-19T02:49:05;17.00;99.90
29917;DHT22;16786;49.466;11.068;2023-09-19T02:51:34;17.10;99.90
29917;DHT22;16786;49.466;11.068;2023-09-19T02:54:01;17.00;99.90
29917;DHT22;16786;49.466;11.068;2023-09-19T02:56:30;17.00;99.90
29917;DHT22;16786;49.466;11.068;2023-09-19T02:58:59;16.90;99.90
29917;DHT22;16786;49.466;11.068;2023-09-19T03:01:27;16.90;99.90
29917;DHT22;16786;49.466;11.068;2023-09-19T03:03:55;16.90;99.90
29917;DHT22;16786;49.466;11.068;2023-09-19T03:06:23;16.90;99.90
29917;DHT22;16786;49.466;11.068;2023-09-19T03:08:51;16.90;99.90
29917;DHT22;16786;49.466;11.068;2023-09-19T03:11:21;16.90;99.90
29917;DHT22;16786;49.466;11.068;2023-09-19T03:13:53;16.90;99.90
29917;DHT22;16786;49.466;11.068;2023-09-19T03:16:21;16.80;99.90
29917;DHT22;16786;49.466;11.068;2023-09-19T03:18:51;16.80;99.90
29917;DHT22;16786;49.466;11.068;2023-09-19T03:21:19;16.80;99.90
29917;DHT22;16786;49.466;11.068;2023-09-19T03:23:46;16.70;99.90
29917;DHT22;16786;49.466;11.068;2023-09-19T03:26:14;16.70;99.90
29917;DHT22;16786;49.466;11.068;2023-09-19T03:28:43;16.70;99.90
29917;DHT22;16786;49.466;11.068;2023-09-19T03:31:11;16.70;99.90
29917;DHT22;16786;49.466;11.068;2023-09-19T03:33:39;16.70;99.90
29917;DHT22;16786;49.466;11.068;2023-09-19T03:36:06;16.70;99.90
29917;DHT22;16786;49.466;11.068;2023-09-19T03:38:34;16.60;99.90
29917;DHT22;16786;49.466;11.068;2023-09-19T03:41:02;16.60;99.90
29917;DHT22;16786;49.466;11.068;2023-09-19T03:43:32;16.60;99.90
29917;DHT22;16786;49.466;11.068;2023-09-19T03:46:02;16.50;99.90
29917;DHT22;16786;49.466;11.068;2023-09-19T03:48:33;16.50;99.90
29917;DHT22;16786;49.466;11.068;2023-09-19T03:51:01;16.50;99.90
29917;DHT22;16786;49.466;11.068;2023-09-19T03:53:29;16.50;99.90
29917;DHT22;16786;49.466;11.068;2023-09-19T03:55:57;16.40;99.90
29917;DHT22;16786;49.466;11.068;2023-09-19T03:58:24;16.40;99.90
29917;DHT22;16786;49.466;11.068;2023-09-19T04:00:55;16.40;99.90
29917;DHT22;16786;49.466;11.068;2023-09-19T04:03:24;16.30;99.90
29917;DHT22;16786;49.466;11.068;2023-09-19T04:05:51;16.30;99.90
29917;DHT22;16786;49.466;11.068;2023-09-19T04:08:19;16.30;99.90
29917;DHT22;16786;49.466;11.068;2023-09-19T04:10:46;16.30;99.90
29917;DHT22;16786;49.466;11.068;2023-09-19T04:13:13;16.20;99.90
29917;DHT22;16786;49.466;11.068;2023-09-19T04:15:41;16.20;99.90
29917;DHT22;16786;49.466;11.068;2023-09-19T04:18:08;16.20;99.90
29917;DHT22;16786;49.466;11.068;2023-09-19T04:20:35;16.20;99.90
29917;DHT22;16786;49.466;11.068;2023-09-19T04:23:03;16.10;99.90
29917;DHT22;16786;49.466;11.068;2023-09-19T04:25:32;16.10;99.90
29917;DHT22;16786;49.466;11.068;2023-09-19T04:27:59;16.20;99.90
29917;DHT22;16786;49.466;11.068;2023-09-19T04:30:27;16.20;99.90
29917;DHT22;16786;49.466;11.068;2023-09-19T04:32:55;16.10;99.90
29917;DHT22;16786;49.466;11.068;2023-09-19T04:35:22;16.10;99.90
29917;DHT22;16786;49.466;11.068;2023-09-19T04:37:50;16.10;99.90
29917;DHT22;16786;49.466;11.068;2023-09-19T04:40:18;16.10;99.90
29917;DHT22;16786;49.466;11.068;2023-09-19T04:42:53;16.20;99.90
29917;DHT22;16786;49.466;11.068;2023-09-19T04:45:24;16.20;99.90
29917;DHT22;16786;49.466;11.068;2023-09-19T04:47:52;16.20;99.90
29917;DHT22;16786;49.466;11.068;2023-09-19T04:50:20;16.30;99.90
29917;DHT22;16786;49.466;11.068;2023-09-19T04:52:50;16.30;99.90
29917;DHT22;16786;49.466;11.068;2023-09-19T04:55:18;16.30;99.90
29917;DHT22;16786;49.466;11.068;2023-09-19T04:57:47;16.40;99.90
29917;DHT22;16786;49.466;11.068;2023-09-19T05:00:17;16.40;99.90
29917;DHT22;16786;49.466;11.068;2023-09-19T05:02:49;16.50;99.90
29917;DHT22;16786;49.466;11.068;2023-09-19T05:05:17;16.60;99.90
29917;DHT22;16786;49.466;11.068;2023-09-19T05:07:45;16.60;99.90
29917;DHT22;16786;49.466;11.068;2023-09-19T05:10:13;16.60;99.90
29917;DHT22;16786;49.466;11.068;2023-09-19T05:12:41;16.60;99.90
29917;DHT22;16786;49.466;11.068;2023-09-19T05:15:09;16.60;99.90
29917;DHT22;16786;49.466;11.068;2023-09-19T05:17:36;16.60;99.90
29917;DHT22;16786;49.466;11.068;2023-09-19T05:20:04;16.70;99.90
29917;DHT22;16786;49.466;11.068;2023-09-19T05:22:43;16.70;99.90
29917;DHT22;16786;49.466;11.068;2023-09-19T05:25:13;16.70;99.90
29917;DHT22;16786;49.466;11.068;2023-09-19T05:27:45;16.70;99.90
29917;DHT22;16786;49.466;11.068;2023-09-19T05:30:13;16.70;99.90
29917;DHT22;16786;49.466;11.068;2023-09-19T05:32:42;16.70;99.90
29917;DHT22;16786;49.466;11.068;2023-09-19T05:35:10;16.70;99.90
29917;DHT22;16786;49.466;11.068;2023-09-19T05:37:40;16.80;99.90
29917;DHT22;16786;49.466;11.068;2023-09-19T05:40:07;16.80;99.90
29917;DHT22;16786;49.466;11.068;2023-09-19T05:42:39;16.80;99.90
29917;DHT22;16786;49.466;11.068;2023-09-19T05:45:08;16.90;99.90
29917;DHT22;16786;49.466;11.068;2023-09-19T05:47:40;16.90;99.90
29917;DHT22;16786;49.466;11.068;2023-09-19T05:50:12;16.90;99.90
29917;DHT22;16786;49.466;11.068;2023-09-19T05:52:42;17.00;99.90
29917;DHT22;16786;49.466;11.068;2023-09-19T05:55:10;16.90;99.90
29917;DHT22;16786;49.466;11.068;2023-09-19T05:57:38;16.90;99.90
29917;DHT22;16786;49.466;11.068;2023-09-19T06:00:11;16.90;99.90
29917;DHT22;16786;49.466;11.068;2023-09-19T06:02:39;16.90;99.90
29917;DHT22;16786;49.466;11.068;2023-09-19T06:05:07;17.00;99.90
29917;DHT22;16786;49.466;11.068;2023-09-19T06:07:37;17.00;99.90
29917;DHT22;16786;49.466;11.068;2023-09-19T06:10:05;17.00;99.90
29917;DHT22;16786;49.466;11.068;2023-09-19T06:12:40;17.10;99.90
29917;DHT22;16786;49.466;11.068;2023-09-19T06:15:08;17.10;99.90
29917;DHT22;16786;49.466;11.068;2023-09-19T06:17:35;17.20;99.90
29917;DHT22;16786;49.466;11.068;2023-09-19T06:20:06;17.40;99.90
29917;DHT22;16786;49.466;11.068;2023-09-19T06:22:43;17.50;99.90
29917;DHT22;16786;49.466;11.068;2023-09-19T06:25:12;17.50;99.90
29917;DHT22;16786;49.466;11.068;2023-09-19T06:27:42;17.60;99.90
29917;DHT22;16786;49.466;11.068;2023-09-19T06:30:11;17.70;99.90
29917;DHT22;16786;49.466;11.068;2023-09-19T06:32:38;17.70;99.90
29917;DHT22;16786;49.466;11.068;2023-09-19T06:35:06;17.80;99.90
29917;DHT22;16786;49.466;11.068;2023-09-19T06:37:38;17.80;99.90
29917;DHT22;16786;49.466;11.068;2023-09-19T06:40:10;17.90;99.90
29917;DHT22;16786;49.466;11.068;2023-09-19T06:42:45;18.00;99.90
29917;DHT22;16786;49.466;11.068;2023-09-19T06:45:14;18.10;99.90
29917;DHT22;16786;49.466;11.068;2023-09-19T06:47:45;18.10;99.90
29917;DHT22;16786;49.466;11.068;2023-09-19T06:50:13;18.10;99.90
29917;DHT22;16786;49.466;11.068;2023-09-19T06:52:41;18.30;99.90
29917;DHT22;16786;49.466;11.068;2023-09-19T06:55:09;18.40;99.90
29917;DHT22;16786;49.466;11.068;2023-09-19T06:57:39;18.50;99.90
29917;DHT22;16786;49.466;11.068;2023-09-19T07:00:17;18.40;99.90
29917;DHT22;16786;49.466;11.068;2023-09-19T07:03:05;18.30;99.90
29917;DHT22;16786;49.466;11.068;2023-09-19T07:05:38;18.50;99.90
29917;DHT22;16786;49.466;11.068;2023-09-19T07:08:08;18.50;99.90
29917;DHT22;16786;49.466;11.068;2023-09-19T07:10:36;18.50;99.90
29917;DHT22;16786;49.466;11.068;2023-09-19T07:13:05;18.40;99.90
29917;DHT22;16786;49.466;11.068;2023-09-19T07:15:37;18.30;99.90
29917;DHT22;16786;49.466;11.068;2023-09-19T07:18:14;18.30;99.90
29917;DHT22;16786;49.466;11.068;2023-09-19T07:20:45;18.20;99.90
29917;DHT22;16786;49.466;11.068;2023-09-19T07:23:17;18.20;99.90
29917;DHT22;16786;49.466;11.068;2023-09-19T07:25:45;18.40;99.90
29917;DHT22;16786;49.466;11.068;2023-09-19T07:28:13;18.50;99.90
29917;DHT22;16786;49.466;11.068;2023-09-19T07:30:41;18.50;99.90
29917;DHT22;16786;49.466;11.068;2023-09-19T07:33:08;18.50;99.90
29917;DHT22;16786;49.466;11.068;2023-09-19T07:35:39;18.50;99.90
29917;DHT22;16786;49.466;11.068;2023-09-19T07:38:09;18.50;99.90
29917;DHT22;16786;49.466;11.068;2023-09-19T07:40:39;18.50;99.90
29917;DHT22;16786;49.466;11.068;2023-09-19T07:43:06;18.50;99.90
29917;DHT22;16786;49.466;11.068;2023-09-19T07:45:34;18.40;99.90
29917;DHT22;16786;49.466;11.068;2023-09-19T07:48:03;18.50;99.90
29917;DHT22;16786;49.466;11.068;2023-09-19T07:50:34;18.70;99.90
29917;DHT22;16786;49.466;11.068;2023-09-19T07:53:03;18.70;99.90
29917;DHT22;16786;49.466;11.068;2023-09-19T07:55:32;18.80;99.90
29917;DHT22;16786;49.466;11.068;2023-09-19T07:58:01;18.90;99.90
29917;DHT22;16786;49.466;11.068;2023-09-19T08:00:31;18.80;99.90
29917;DHT22;16786;49.466;11.068;2023-09-19T08:03:02;18.90;99.90
29917;DHT22;16786;49.466;11.068;2023-09-19T08:05:41;19.00;99.90
29917;DHT22;16786;49.466;11.068;2023-09-19T08:08:10;19.20;99.90
29917;DHT22;16786;49.466;11.068;2023-09-19T08:10:40;19.20;99.90
29917;DHT22;16786;49.466;11.068;2023-09-19T08:13:09;19.20;99.90
29917;DHT22;16786;49.466;11.068;2023-09-19T08:15:44;19.00;99.90
29917;DHT22;16786;49.466;11.068;2023-09-19T08:18:11;19.00;99.90
29917;DHT22;16786;49.466;11.068;2023-09-19T08:20:43;19.00;99.90
29917;DHT22;16786;49.466;11.068;2023-09-19T08:23:13;19.20;99.90
29917;DHT22;16786;49.466;11.068;2023-09-19T08:25:40;19.20;99.90
29917;DHT22;16786;49.466;11.068;2023-09-19T08:28:08;19.10;99.90
29917;DHT22;16786;49.466;11.068;2023-09-19T08:30:35;19.10;99.90
29917;DHT22;16786;49.466;11.068;2023-09-19T08:33:04;19.10;99.90
29917;DHT22;16786;49.466;11.068;2023-09-19T08:35:32;19.20;99.90
29917;DHT22;16786;49.466;11.068;2023-09-19T08:37:59;19.40;99.90
29917;DHT22;16786;49.466;11.068;2023-09-19T08:40:32;19.40;99.90
29917;DHT22;16786;49.466;11.068;2023-09-19T08:43:00;19.60;99.90
29917;DHT22;16786;49.466;11.068;2023-09-19T08:45:27;19.80;99.90
29917;DHT22;16786;49.466;11.068;2023-09-19T08:48:24;19.90;99.90
29917;DHT22;16786;49.466;11.068;2023-09-19T08:50:57;19.90;99.90
29917;DHT22;16786;49.466;11.068;2023-09-19T08:56:08;20.20;99.90
29917;DHT22;16786;49.466;11.068;2023-09-19T08:59:04;20.00;99.90
29917;DHT22;16786;49.466;11.068;2023-09-19T09:01:35;19.80;99.90
29917;DHT22;16786;49.466;11.068;2023-09-19T09:04:03;19.70;99.90
29917;DHT22;16786;49.466;11.068;2023-09-19T09:06:31;19.90;99.90
29917;DHT22;16786;49.466;11.068;2023-09-19T09:09:00;20.00;99.90
29917;DHT22;16786;49.466;11.068;2023-09-19T09:11:28;20.30;99.90
29917;DHT22;16786;49.466;11.068;2023-09-19T09:13:55;20.30;99.90
29917;DHT22;16786;49.466;11.068;2023-09-19T09:16:24;20.40;99.90
29917;DHT22;16786;49.466;11.068;2023-09-19T09:18:53;20.20;99.90
29917;DHT22;16786;49.466;11.068;2023-09-19T09:21:23;20.00;99.90
29917;DHT22;16786;49.466;11.068;2023-09-19T09:23:52;19.90;99.90
29917;DHT22;16786;49.466;11.068;2023-09-19T09:29:06;19.70;99.90
29917;DHT22;16786;49.466;11.068;2023-09-19T09:31:34;19.80;99.90
29917;DHT22;16786;49.466;11.068;2023-09-19T09:34:01;19.80;99.90
29917;DHT22;16786;49.466;11.068;2023-09-19T09:36:37;19.60;99.90
29917;DHT22;16786;49.466;11.068;2023-09-19T09:39:05;19.60;99.90
29917;DHT22;16786;49.466;11.068;2023-09-19T09:41:53;19.40;99.90
29917;DHT22;16786;49.466;11.068;2023-09-19T09:44:20;19.30;99.90
29917;DHT22;16786;49.466;11.068;2023-09-19T09:46:48;19.30;99.90
29917;DHT22;16786;49.466;11.068;2023-09-19T09:49:27;19.40;99.90
29917;DHT22;16786;49.466;11.068;2023-09-19T09:52:03;19.40;99.90
29917;DHT22;16786;49.466;11.068;2023-09-19T09:54:38;19.40;99.90
29917;DHT22;16786;49.466;11.068;2023-09-19T09:57:07;19.60;99.90
29917;DHT22;16786;49.466;11.068;2023-09-19T10:02:19;19.80;99.90
29917;DHT22;16786;49.466;11.068;2023-09-19T10:04:56;19.90;99.90
29917;DHT22;16786;49.466;11.068;2023-09-19T10:07:41;19.70;99.90
29917;DHT22;16786;49.466;11.068;2023-09-19T10:10:15;20.00;99.90
29917;DHT22;16786;49.466;11.068;2023-09-19T10:12:48;20.00;99.90
29917;DHT22;16786;49.466;11.068;2023-09-19T10:15:18;20.10;99.90
29917;DHT22;16786;49.466;11.068;2023-09-19T10:17:48;20.20;99.90
29917;DHT22;16786;49.466;11.068;2023-09-19T10:20:18;20.30;99.90
29917;DHT22;16786;49.466;11.068;2023-09-19T10:23:04;20.50;99.90
29917;DHT22;16786;49.466;11.068;2023-09-19T10:25:38;20.70;99.90
29917;DHT22;16786;49.466;11.068;2023-09-19T10:28:08;20.90;99.90
29917;DHT22;16786;49.466;11.068;2023-09-19T10:30:47;21.00;99.90
29917;DHT22;16786;49.466;11.068;2023-09-19T10:33:16;20.90;99.90
29917;DHT22;16786;49.466;11.068;2023-09-19T10:35:45;21.00;99.90
29917;DHT22;16786;49.466;11.068;2023-09-19T10:38:17;21.10;99.90
29917;DHT22;16786;49.466;11.068;2023-09-19T10:40:49;21.10;99.90
29917;DHT22;16786;49.466;11.068;2023-09-19T10:43:18;20.90;99.90
29917;DHT22;16786;49.466;11.068;2023-09-19T10:45:47;20.70;99.90
29917;DHT22;16786;49.466;11.068;2023-09-19T10:48:17;20.70;99.90
29917;DHT22;16786;49.466;11.068;2023-09-19T10:53:40;20.60;99.90
29917;DHT22;16786;49.466;11.068;2023-09-19T10:56:10;20.80;99.90
29917;DHT22;16786;49.466;11.068;2023-09-19T10:58:44;20.80;99.90
29917;DHT22;16786;49.466;11.068;2023-09-19T11:01:12;21.20;99.90
29917;DHT22;16786;49.466;11.068;2023-09-19T11:03:42;21.20;99.90
29917;DHT22;16786;49.466;11.068;2023-09-19T11:06:14;21.10;99.90
29917;DHT22;16786;49.466;11.068;2023-09-19T11:09:02;21.60;99.90
29917;DHT22;16786;49.466;11.068;2023-09-19T11:11:43;21.80;99.90
29917;DHT22;16786;49.466;11.068;2023-09-19T11:30:40;21.70;99.90
29917;DHT22;16786;49.466;11.068;2023-09-19T11:33:29;21.30;99.90
29917;DHT22;16786;49.466;11.068;2023-09-19T11:36:12;21.00;99.90
29917;DHT22;16786;49.466;11.068;2023-09-19T11:43:49;21.00;99.90
29917;DHT22;16786;49.466;11.068;2023-09-19T11:46:21;21.10;99.90
29917;DHT22;16786;49.466;11.068;2023-09-19T11:48:49;20.90;99.90
29917;DHT22;16786;49.466;11.068;2023-09-19T11:51:21;20.80;99.90
29917;DHT22;16786;49.466;11.068;2023-09-19T11:53:58;20.80;99.90
29917;DHT22;16786;49.466;11.068;2023-09-19T11:56:29;20.70;99.90
29917;DHT22;16786;49.466;11.068;2023-09-19T11:58:58;20.70;99.90
29917;DHT22;16786;49.466;11.068;2023-09-19T12:01:31;20.90;99.90
29917;DHT22;16786;49.466;11.068;2023-09-19T12:04:01;21.40;99.90
29917;DHT22;16786;49.466;11.068;2023-09-19T12:06:31;21.60;99.90
29917;DHT22;16786;49.466;11.068;2023-09-19T12:09:03;22.10;99.90
29917;DHT22;16786;49.466;11.068;2023-09-19T12:11:41;22.10;99.90
29917;DHT22;16786;49.466;11.068;2023-09-19T12:14:11;22.20;99.90
29917;DHT22;16786;49.466;11.068;2023-09-19T12:16:39;22.30;99.90
29917;DHT22;16786;49.466;11.068;2023-09-19T12:19:19;22.20;99.90
29917;DHT22;16786;49.466;11.068;2023-09-19T12:21:58;22.90;99.90
29917;DHT22;16786;49.466;11.068;2023-09-19T12:24:27;22.80;99.90
29917;DHT22;16786;49.466;11.068;2023-09-19T12:27:04;23.30;99.90
29917;DHT22;16786;49.466;11.068;2023-09-19T12:29:46;23.40;99.90
29917;DHT22;16786;49.466;11.068;2023-09-19T12:32:16;23.80;99.90
29917;DHT22;16786;49.466;11.068;2023-09-19T12:34:53;23.70;99.90
29917;DHT22;16786;49.466;11.068;2023-09-19T12:37:22;23.30;99.90
29917;DHT22;16786;49.466;11.068;2023-09-19T12:39:51;23.20;99.90
29917;DHT22;16786;49.466;11.068;2023-09-19T12:42:23;23.40;99.90
29917;DHT22;16786;49.466;11.068;2023-09-19T12:44:52;24.20;99.90
29917;DHT22;16786;49.466;11.068;2023-09-19T12:47:24;24.00;99.90
29917;DHT22;16786;49.466;11.068;2023-09-19T12:50:13;24.20;99.90
29917;DHT22;16786;49.466;11.068;2023-09-19T12:52:47;24.30;99.90
29917;DHT22;16786;49.466;11.068;2023-09-19T12:55:34;24.10;99.90
29917;DHT22;16786;49.466;11.068;2023-09-19T12:58:11;24.60;99.90
29917;DHT22;16786;49.466;11.068;2023-09-19T13:03:17;26.00;99.90
29917;DHT22;16786;49.466;11.068;2023-09-19T13:05:55;26.50;99.90
29917;DHT22;16786;49.466;11.068;2023-09-19T13:08:30;26.30;99.90
29917;DHT22;16786;49.466;11.068;2023-09-19T13:13:34;26.80;99.90
29917;DHT22;16786;49.466;11.068;2023-09-19T13:16:04;26.90;99.90
29917;DHT22;16786;49.466;11.068;2023-09-19T13:18:45;27.40;99.90
29917;DHT22;16786;49.466;11.068;2023-09-19T13:21:14;28.20;98.70
29917;DHT22;16786;49.466;11.068;2023-09-19T13:23:55;29.00;97.40
29917;DHT22;16786;49.466;11.068;2023-09-19T13:26:26;28.40;96.70
29917;DHT22;16786;49.466;11.068;2023-09-19T13:28:55;28.40;95.90
29917;DHT22;16786;49.466;11.068;2023-09-19T13:31:22;27.70;96.20
29917;DHT22;16786;49.466;11.068;2023-09-19T13:33:51;27.50;96.50
29917;DHT22;16786;49.466;11.068;2023-09-19T13:36:19;27.90;96.50
29917;DHT22;16786;49.466;11.068;2023-09-19T13:38:46;29.00;94.90
29917;DHT22;16786;49.466;11.068;2023-09-19T13:41:16;28.90;93.50
29917;DHT22;16786;49.466;11.068;2023-09-19T13:43:43;28.70;93.70
29917;DHT22;16786;49.466;11.068;2023-09-19T13:46:15;28.70;93.00
29917;DHT22;16786;49.466;11.068;2023-09-19T13:48:45;28.00;93.80
29917;DHT22;16786;49.466;11.068;2023-09-19T13:51:12;28.80;92.40
29917;DHT22;16786;49.466;11.068;2023-09-19T13:53:39;27.50;93.50
29917;DHT22;16786;49.466;11.068;2023-09-19T13:56:06;27.10;94.60
29917;DHT22;16786;49.466;11.068;2023-09-19T13:58:34;28.50;93.30
29917;DHT22;16786;49.466;11.068;2023-09-19T14:01:01;29.70;91.40
29917;DHT22;16786;49.466;11.068;2023-09-19T14:03:29;30.70;89.70
29917;DHT22;16786;49.466;11.068;2023-09-19T14:05:56;31.20;86.00
29917;DHT22;16786;49.466;11.068;2023-09-19T14:08:24;31.90;83.00
29917;DHT22;16786;49.466;11.068;2023-09-19T14:10:52;31.50;81.80
29917;DHT22;16786;49.466;11.068;2023-09-19T14:13:20;31.50;79.70
29917;DHT22;16786;49.466;11.068;2023-09-19T14:15:47;31.40;80.00
29917;DHT22;16786;49.466;11.068;2023-09-19T14:18:15;31.80;78.30
29917;DHT22;16786;49.466;11.068;2023-09-19T14:20:42;31.60;77.50
29917;DHT22;16786;49.466;11.068;2023-09-19T14:23:09;32.50;75.00
29917;DHT22;16786;49.466;11.068;2023-09-19T14:25:37;32.80;75.10
29917;DHT22;16786;49.466;11.068;2023-09-19T14:28:05;32.50;72.60
29917;DHT22;16786;49.466;11.068;2023-09-19T14:30:35;33.00;72.00
29917;DHT22;16786;49.466;11.068;2023-09-19T14:33:04;32.70;71.50
29917;DHT22;16786;49.466;11.068;2023-09-19T14:35:33;32.60;71.80
29917;DHT22;16786;49.466;11.068;2023-09-19T14:38:00;33.70;67.60
29917;DHT22;16786;49.466;11.068;2023-09-19T14:40:27;33.80;66.60
29917;DHT22;16786;49.466;11.068;2023-09-19T14:42:54;33.50;68.20
29917;DHT22;16786;49.466;11.068;2023-09-19T14:45:22;32.10;69.20
29917;DHT22;16786;49.466;11.068;2023-09-19T14:47:50;32.60;69.10
29917;DHT22;16786;49.466;11.068;2023-09-19T14:50:22;31.90;70.30
29917;DHT22;16786;49.466;11.068;2023-09-19T14:52:49;31.90;69.20
29917;DHT22;16786;49.466;11.068;2023-09-19T14:55:18;32.30;68.40
29917;DHT22;16786;49.466;11.068;2023-09-19T14:57:49;31.60;68.70
29917;DHT22;16786;49.466;11.068;2023-09-19T15:00:18;32.10;68.00
29917;DHT22;16786;49.466;11.068;2023-09-19T15:02:47;31.90;68.70
29917;DHT22;16786;49.466;11.068;2023-09-19T15:05:17;30.60;68.40
29917;DHT22;16786;49.466;11.068;2023-09-19T15:07:46;30.70;70.30
29917;DHT22;16786;49.466;11.068;2023-09-19T15:10:14;30.50;71.00
29917;DHT22;16786;49.466;11.068;2023-09-19T15:12:41;30.80;70.00
29917;DHT22;16786;49.466;11.068;2023-09-19T15:15:09;31.60;70.40
29917;DHT22;16786;49.466;11.068;2023-09-19T15:17:36;31.20;69.40
29917;DHT22;16786;49.466;11.068;2023-09-19T15:20:05;31.00;69.30
29917;DHT22;16786;49.466;11.068;2023-09-19T15:22:34;31.20;69.00
29917;DHT22;16786;49.466;11.068;2023-09-19T15:25:02;31.10;68.60
29917;DHT22;16786;49.466;11.068;2023-09-19T15:27:31;30.40;68.60
29917;DHT22;16786;49.466;11.068;2023-09-19T15:30:00;29.90;69.80
29917;DHT22;16786;49.466;11.068;2023-09-19T15:32:29;30.20;69.30
29917;DHT22;16786;49.466;11.068;2023-09-19T15:34:57;29.50;69.90
29917;DHT22;16786;49.466;11.068;2023-09-19T15:37:24;28.60;71.40
29917;DHT22;16786;49.466;11.068;2023-09-19T15:39:53;28.50;72.20
29917;DHT22;16786;49.466;11.068;2023-09-19T15:42:20;28.30;72.90
29917;DHT22;16786;49.466;11.068;2023-09-19T15:44:47;27.80;73.60
29917;DHT22;16786;49.466;11.068;2023-09-19T15:47:17;27.30;74.70
29917;DHT22;16786;49.466;11.068;2023-09-19T15:49:45;27.00;76.10
29917;DHT22;16786;49.466;11.068;2023-09-19T15:52:12;25.80;77.50
29917;DHT22;16786;49.466;11.068;2023-09-19T15:54:40;25.10;80.00
29917;DHT22;16786;49.466;11.068;2023-09-19T15:57:11;24.80;81.70
29917;DHT22;16786;49.466;11.068;2023-09-19T15:59:41;24.80;82.10
29917;DHT22;16786;49.466;11.068;2023-09-19T16:02:08;24.40;83.00
29917;DHT22;16786;49.466;11.068;2023-09-19T16:04:36;24.10;84.60
29917;DHT22;16786;49.466;11.068;2023-09-19T16:07:05;24.00;85.70
29917;DHT22;16786;49.466;11.068;2023-09-19T16:09:34;23.90;86.60
29917;DHT22;16786;49.466;11.068;2023-09-19T16:12:02;23.80;87.60
29917;DHT22;16786;49.466;11.068;2023-09-19T16:14:30;23.80;88.30
29917;DHT22;16786;49.466;11.068;2023-09-19T16:16:58;23.40;89.10
29917;DHT22;16786;49.466;11.068;2023-09-19T16:19:27;23.70;90.00
29917;DHT22;16786;49.466;11.068;2023-09-19T16:21:54;23.70;90.30
29917;DHT22;16786;49.466;11.068;2023-09-19T16:24:22;23.20;90.80
29917;DHT22;16786;49.466;11.068;2023-09-19T16:26:50;23.20;91.10